Detall de PIREP

Printer-friendly versionPDF version

[2012/12/22 10:42:00]
Flight IATA:CT1008
Pilot Number:026
Company ICAO:CAT
Aircraft Type:DC85/A
PAX:0
Aircraft Registration:CARGO
Departing Airport: LEBL
Destination Airport: OMDB
Alternate Airport:OMAA
Online: VATSIM
Route:VERSO UM24 LAPIT UN725 ORKUM UM603 ORVEX UM601 BALMA UR655 LEBOR R655 KTN A21 TAN G202 PUSTO M203 ILMAP UP975 SIDAD R784 PEBAT B416 DESDI
Flight Level:F370
No Slew and time accel
No pause
Crash detect
Detect pilot in Cockpit between each 30 and 45 minutes
10:42 Zero fuel Weight: 191756 Lbs, Fuel Weight: 89971 Lbs
10:42 VATSIM:LEBL 221030Z 33008G19KT 260V010 9999 FEW022 SCT040 13/07 Q1024 NOSIG
10:42 VATSIM:OMDB 221000Z 32008KT CAVOK 27/16 Q1015 NOSIG
10:43 VOICE CATALONIAN / INUNDACIONS SRI LANKA
10:52 Parking Brakes off
10:59 Take-off
10:59 Take off Weight: 280459 Lbs
10:59 Wind: 329º @ 008 Knots Heading: 200º
10:59 POS N41º 17´ 29´´ E002º 05´ 11´´
10:59 Flaps:3 at 157 Knots
10:59 Flaps:2 at 143 Knots
10:59 Flaps:1 at 148 Knots
11:00 Flaps:0 at 179 Knots
11:01 Flaps:1 at 156 Knots
11:01 Flaps:2 at 190 Knots
11:02 Flaps:1 at 231 Knots
11:02 Flaps:0 at 213 Knots
11:03 Gear Up: 225 Knots
11:14 Wind:311º@012 Knots Heading: 109º Ground Speed: 382 Knots Altitude 27687 ft
11:29 Wind:340º@019 Knots Heading: 095º Ground Speed: 489 Knots Altitude 36250 ft
11:44 Wind:000º@020 Knots Heading: 081º Ground Speed: 458 Knots Altitude 36223 ft
11:59 Wind:027º@032 Knots Heading: 101º Ground Speed: 451 Knots Altitude 36138 ft
12:14 Wind:014º@036 Knots Heading: 102º Ground Speed: 462 Knots Altitude 36040 ft
12:29 Wind:022º@032 Knots Heading: 094º Ground Speed: 451 Knots Altitude 35915 ft
12:44 Wind:000º@042 Knots Heading: 103º Ground Speed: 476 Knots Altitude 35925 ft
12:53 TOC
12:53 Fuel Weight: 61799 Lb
12:55 TOD
12:55 Fuel Weight: 61430 Lb
12:56 TOC
12:56 Fuel Weight: 61253 Lb
12:59 Wind:049º@027 Knots Heading: 106º Ground Speed: 470 Knots Altitude 36814 ft
13:14 Wind:002º@020 Knots Heading: 108º Ground Speed: 493 Knots Altitude 36837 ft
13:29 Wind:029º@086 Knots Heading: 085º Ground Speed: 442 Knots Altitude 36889 ft
13:44 Wind:048º@031 Knots Heading: 096º Ground Speed: 419 Knots Altitude 36896 ft
13:59 Wind:039º@024 Knots Heading: 107º Ground Speed: 465 Knots Altitude 36942 ft
14:00 TOD
14:00 Fuel Weight: 47951 Lb
14:00 TOC
14:00 Fuel Weight: 47784 Lb
14:14 Wind:091º@009 Knots Heading: 113º Ground Speed: 479 Knots Altitude 37004 ft
14:29 Wind:219º@020 Knots Heading: 110º Ground Speed: 495 Knots Altitude 37047 ft
14:44 Wind:213º@020 Knots Heading: 095º Ground Speed: 495 Knots Altitude 37122 ft
14:59 Wind:234º@015 Knots Heading: 124º Ground Speed: 495 Knots Altitude 37125 ft
15:14 Wind:135º@006 Knots Heading: 093º Ground Speed: 486 Knots Altitude 37142 ft
15:29 Wind:129º@001 Knots Heading: 122º Ground Speed: 488 Knots Altitude 37188 ft
15:44 Wind:356º@002 Knots Heading: 117º Ground Speed: 491 Knots Altitude 37178 ft
15:59 Wind:345º@002 Knots Heading: 138º Ground Speed: 496 Knots Altitude 37155 ft
16:14 Wind:000º@065 Knots Heading: 124º Ground Speed: 527 Knots Altitude 37148 ft
16:29 Wind:153º@009 Knots Heading: 134º Ground Speed: 491 Knots Altitude 37099 ft
16:44 Wind:286º@017 Knots Heading: 123º Ground Speed: 511 Knots Altitude 37070 ft
16:48 TOD
16:48 Fuel Weight: 9793 Lb
16:59 Wind:359º@013 Knots Heading: 124º Ground Speed: 342 Knots Altitude 16391 ft
17:14 Wind:046º@002 Knots Heading: 127º Ground Speed: 238 Knots Altitude 2109 ft
17:16 Flaps:1 at 209 Knots
17:20 Gear Down: 216 Knots
17:20 Flaps:2 at 173 Knots
17:21 Flaps:3 at 165 Knots
17:21 Flaps:4 at 144 Knots
17:21 Flaps:5 at 138 Knots
17:22 TouchDown:Rate -249 ft/min Speed: 122 Knots
17:22 VATSIM:OMDB 221700Z 04004KT 350V100 CAVOK 24/17 Q1017 NOSIG
17:22 Land
17:22 Wind:041º@005 Knots
17:22 Heading: 296º
17:22 Flight Duration: 06:23
17:22 Landing Weight: 198379 Lbs
17:22 POS N25º 15´ 25´´ E055º 21´ 49´´
17:30 Parking brakes on
17:30 Block to Block Duration: 06:38
17:30 Final Fuel: 6078 Lbls
17:30 Spent Fuel: 83893 Lbls
17:30 Flight Length: 2762 NM
17:30 TOD Land Length: 147 NM

Exportar CSV

Powered by Drupal - Modified by Danger4k